J004 LTAC-LTAN
Flight info
| Callsign | J004 |
|---|---|
| Flight time | 0h 40m |
| Altitude | 20000 |
| Route | TELVO1D/21R TELVO M856 OKELI OKELI1T |
| Aircraft | B350/L-SBGRW/S |
Departure
| Time | 2026-04-23 17:48 |
|---|---|
| Airport | Esenboğa International Airport (LTAC) |
Arrival
| Time | 2026-04-23 18:28 |
|---|---|
| Airport | Konya Airport (LTAN) |
| Time | Latitude | Longitude | Altitude | Speed | Heading |
|---|---|---|---|---|---|
| 2026-04-23 17:38 | 40.13798 | 32.99885 | 3131 ft | 0 kts | 216° |
| 2026-04-23 17:44 | 40.13768 | 32.99879 | 3131 ft | 8 kts | 130° |
| 2026-04-23 17:45 | 40.13724 | 32.99968 | 3131 ft | 5 kts | 74° |
| 2026-04-23 17:45 | 40.13897 | 33.00114 | 3131 ft | 23 kts | 36° |
| 2026-04-23 17:45 | 40.14045 | 33.00255 | 3130 ft | 29 kts | 36° |
| 2026-04-23 17:46 | 40.14303 | 33.00506 | 3130 ft | 17 kts | 56° |
| 2026-04-23 17:46 | 40.14296 | 33.00601 | 3130 ft | 0 kts | 126° |
| 2026-04-23 17:47 | 40.14230 | 33.00683 | 3130 ft | 8 kts | 182° |
| 2026-04-23 17:48 | 40.14177 | 33.00657 | 3129 ft | 6 kts | 215° |
| 2026-04-23 17:48 | 40.14105 | 33.00588 | 3129 ft | 53 kts | 217° |
| 2026-04-23 17:48 | 40.13557 | 33.00073 | 3206 ft | 130 kts | 217° |
| 2026-04-23 17:48 | 40.12737 | 32.99387 | 3741 ft | 149 kts | 213° |
| 2026-04-23 17:49 | 40.11836 | 32.98607 | 4335 ft | 161 kts | 218° |
| 2026-04-23 17:49 | 40.10919 | 32.97687 | 4960 ft | 171 kts | 220° |
| 2026-04-23 17:49 | 40.09942 | 32.96735 | 5522 ft | 179 kts | 219° |
| 2026-04-23 17:49 | 40.08916 | 32.95772 | 6097 ft | 185 kts | 218° |
| 2026-04-23 17:50 | 40.07859 | 32.94762 | 6635 ft | 191 kts | 219° |
| 2026-04-23 17:50 | 40.05669 | 32.92658 | 7749 ft | 199 kts | 219° |
| 2026-04-23 17:50 | 40.04548 | 32.91589 | 8319 ft | 201 kts | 219° |
| 2026-04-23 17:51 | 40.03419 | 32.90511 | 8897 ft | 201 kts | 220° |
| 2026-04-23 17:51 | 40.02286 | 32.89426 | 9490 ft | 202 kts | 220° |
| 2026-04-23 17:51 | 39.99572 | 32.89232 | 10582 ft | 214 kts | 162° |
| 2026-04-23 17:52 | 39.98232 | 32.90094 | 11125 ft | 217 kts | 152° |
| 2026-04-23 17:52 | 39.95760 | 32.92402 | 12229 ft | 220 kts | 153° |
| 2026-04-23 17:52 | 39.94475 | 32.93515 | 12753 ft | 224 kts | 153° |
| 2026-04-23 17:53 | 39.91740 | 32.95070 | 13821 ft | 207 kts | 190° |
| 2026-04-23 17:53 | 39.90306 | 32.94962 | 14306 ft | 206 kts | 195° |
| 2026-04-23 17:53 | 39.88879 | 32.94780 | 14780 ft | 207 kts | 195° |
| 2026-04-23 17:54 | 39.87432 | 32.94712 | 15261 ft | 208 kts | 192° |
| 2026-04-23 17:54 | 39.85997 | 32.94664 | 15761 ft | 205 kts | 194° |
| 2026-04-23 17:54 | 39.83171 | 32.94501 | 16797 ft | 202 kts | 193° |
| 2026-04-23 17:55 | 39.80372 | 32.94362 | 17872 ft | 201 kts | 194° |
| 2026-04-23 17:55 | 39.78981 | 32.94290 | 18393 ft | 199 kts | 194° |
| 2026-04-23 17:55 | 39.77594 | 32.94225 | 18858 ft | 199 kts | 194° |
| 2026-04-23 17:56 | 39.76216 | 32.94155 | 19329 ft | 198 kts | 195° |
| 2026-04-23 17:56 | 39.73391 | 32.93995 | 19867 ft | 213 kts | 194° |
| 2026-04-23 17:56 | 39.71873 | 32.93921 | 19956 ft | 227 kts | 194° |
| 2026-04-23 17:57 | 39.70238 | 32.93846 | 19981 ft | 238 kts | 193° |
| 2026-04-23 17:57 | 39.68550 | 32.93759 | 20000 ft | 246 kts | 193° |
| 2026-04-23 17:57 | 39.65052 | 32.93583 | 20012 ft | 256 kts | 193° |
| 2026-04-23 17:58 | 39.63261 | 32.93492 | 20017 ft | 259 kts | 193° |
| 2026-04-23 17:58 | 39.61455 | 32.93401 | 20017 ft | 260 kts | 193° |
| 2026-04-23 17:58 | 39.59641 | 32.93308 | 20022 ft | 262 kts | 193° |
| 2026-04-23 17:58 | 39.57818 | 32.93216 | 20023 ft | 263 kts | 193° |
| 2026-04-23 17:59 | 39.55991 | 32.93123 | 20017 ft | 263 kts | 193° |
| 2026-04-23 17:59 | 39.54165 | 32.93032 | 20006 ft | 262 kts | 193° |
| 2026-04-23 17:59 | 39.52340 | 32.92937 | 20019 ft | 262 kts | 193° |
| 2026-04-23 17:59 | 39.50514 | 32.92844 | 20019 ft | 263 kts | 192° |
| 2026-04-23 18:00 | 39.48684 | 32.92753 | 20013 ft | 263 kts | 193° |
| 2026-04-23 18:00 | 39.46857 | 32.92660 | 20018 ft | 263 kts | 193° |
| 2026-04-23 18:00 | 39.45022 | 32.92566 | 20024 ft | 264 kts | 193° |
| 2026-04-23 18:00 | 39.43180 | 32.92474 | 20022 ft | 265 kts | 192° |
| 2026-04-23 18:01 | 39.41331 | 32.92380 | 20019 ft | 266 kts | 192° |
| 2026-04-23 18:01 | 39.39476 | 32.92288 | 20020 ft | 267 kts | 192° |
| 2026-04-23 18:01 | 39.37634 | 32.92235 | 20027 ft | 269 kts | 191° |
| 2026-04-23 18:01 | 39.35743 | 32.92302 | 20021 ft | 277 kts | 184° |
| 2026-04-23 18:02 | 39.34442 | 32.92526 | 20024 ft | 280 kts | 182° |
| 2026-04-23 18:02 | 39.31894 | 32.92884 | 20031 ft | 278 kts | 185° |
| 2026-04-23 18:02 | 39.29959 | 32.93148 | 20027 ft | 280 kts | 184° |
| 2026-04-23 18:02 | 39.28021 | 32.93423 | 20026 ft | 280 kts | 185° |
| 2026-04-23 18:03 | 39.26078 | 32.93678 | 20025 ft | 281 kts | 184° |
| 2026-04-23 18:03 | 39.24134 | 32.93918 | 20021 ft | 280 kts | 186° |
| 2026-04-23 18:03 | 39.22191 | 32.94186 | 20012 ft | 282 kts | 182° |
| 2026-04-23 18:03 | 39.20246 | 32.94511 | 20020 ft | 280 kts | 184° |
| 2026-04-23 18:04 | 39.18306 | 32.94787 | 20023 ft | 280 kts | 184° |
| 2026-04-23 18:04 | 39.16370 | 32.95092 | 20023 ft | 280 kts | 183° |
| 2026-04-23 18:04 | 39.14436 | 32.95386 | 20022 ft | 280 kts | 184° |
| 2026-04-23 18:04 | 39.12501 | 32.95677 | 20024 ft | 280 kts | 183° |
| 2026-04-23 18:05 | 39.10567 | 32.95974 | 20024 ft | 280 kts | 183° |
| 2026-04-23 18:05 | 39.08634 | 32.96267 | 20027 ft | 280 kts | 184° |
| 2026-04-23 18:05 | 39.06696 | 32.96560 | 20026 ft | 280 kts | 183° |
| 2026-04-23 18:05 | 39.04760 | 32.96855 | 20025 ft | 280 kts | 183° |
| 2026-04-23 18:06 | 39.02823 | 32.97148 | 20024 ft | 280 kts | 183° |
| 2026-04-23 18:06 | 39.00883 | 32.97442 | 20027 ft | 281 kts | 183° |
| 2026-04-23 18:06 | 38.98943 | 32.97737 | 20028 ft | 280 kts | 183° |
| 2026-04-23 18:06 | 38.97006 | 32.98030 | 20026 ft | 280 kts | 183° |
| 2026-04-23 18:07 | 38.95073 | 32.98322 | 20028 ft | 280 kts | 183° |
| 2026-04-23 18:07 | 38.93137 | 32.98615 | 20024 ft | 280 kts | 183° |
| 2026-04-23 18:07 | 38.91205 | 32.98907 | 20026 ft | 279 kts | 183° |
| 2026-04-23 18:07 | 38.89274 | 32.99198 | 20026 ft | 279 kts | 183° |
| 2026-04-23 18:08 | 38.87997 | 32.99391 | 20024 ft | 279 kts | 183° |
| 2026-04-23 18:08 | 38.85414 | 32.99781 | 20025 ft | 279 kts | 183° |
| 2026-04-23 18:08 | 38.83482 | 33.00073 | 20030 ft | 279 kts | 183° |
| 2026-04-23 18:08 | 38.81557 | 33.00362 | 20029 ft | 279 kts | 183° |
| 2026-04-23 18:09 | 38.79630 | 33.00652 | 20027 ft | 279 kts | 183° |
| 2026-04-23 18:09 | 38.77704 | 33.00941 | 20026 ft | 279 kts | 183° |
| 2026-04-23 18:09 | 38.75777 | 33.01223 | 20027 ft | 276 kts | 185° |
| 2026-04-23 18:09 | 38.73904 | 33.01064 | 20037 ft | 266 kts | 198° |
| 2026-04-23 18:10 | 38.72121 | 33.00520 | 20032 ft | 262 kts | 204° |
| 2026-04-23 18:10 | 38.70394 | 32.99798 | 20029 ft | 261 kts | 207° |
| 2026-04-23 18:10 | 38.68685 | 32.99008 | 20030 ft | 260 kts | 208° |
| 2026-04-23 18:10 | 38.67057 | 32.98048 | 20035 ft | 257 kts | 214° |
| 2026-04-23 18:11 | 38.65461 | 32.97011 | 20032 ft | 258 kts | 212° |
| 2026-04-23 18:11 | 38.63833 | 32.96027 | 20032 ft | 258 kts | 212° |
| 2026-04-23 18:11 | 38.62222 | 32.95010 | 19948 ft | 258 kts | 213° |
| 2026-04-23 18:11 | 38.60627 | 32.94018 | 19800 ft | 253 kts | 212° |
| 2026-04-23 18:12 | 38.59056 | 32.93052 | 19649 ft | 249 kts | 212° |
| 2026-04-23 18:12 | 38.57511 | 32.92086 | 19501 ft | 246 kts | 213° |
| 2026-04-23 18:12 | 38.55981 | 32.91133 | 19359 ft | 244 kts | 212° |
| 2026-04-23 18:12 | 38.54453 | 32.90188 | 19213 ft | 243 kts | 212° |
| 2026-04-23 18:13 | 38.52936 | 32.89243 | 19068 ft | 242 kts | 212° |
| 2026-04-23 18:13 | 38.51436 | 32.88312 | 18890 ft | 243 kts | 212° |
| 2026-04-23 18:13 | 38.49913 | 32.87367 | 18700 ft | 244 kts | 212° |
| 2026-04-23 18:13 | 38.48382 | 32.86418 | 18510 ft | 245 kts | 212° |
| 2026-04-23 18:14 | 38.47344 | 32.85775 | 18386 ft | 246 kts | 212° |
| 2026-04-23 18:14 | 38.45302 | 32.84509 | 18117 ft | 246 kts | 212° |
| 2026-04-23 18:14 | 38.43759 | 32.83555 | 17895 ft | 247 kts | 212° |
| 2026-04-23 18:14 | 38.42213 | 32.82598 | 17685 ft | 247 kts | 211° |
| 2026-04-23 18:15 | 38.40660 | 32.81634 | 17306 ft | 250 kts | 211° |
| 2026-04-23 18:15 | 38.39090 | 32.80665 | 16885 ft | 251 kts | 211° |
| 2026-04-23 18:15 | 38.37514 | 32.79693 | 16469 ft | 252 kts | 211° |
| 2026-04-23 18:15 | 38.36026 | 32.78555 | 16066 ft | 246 kts | 225° |
| 2026-04-23 18:16 | 38.34697 | 32.77172 | 15653 ft | 248 kts | 219° |
| 2026-04-23 18:16 | 38.33232 | 32.75993 | 15252 ft | 250 kts | 212° |
| 2026-04-23 18:16 | 38.31739 | 32.74890 | 14870 ft | 245 kts | 224° |
| 2026-04-23 18:17 | 38.28928 | 32.72509 | 14086 ft | 250 kts | 205° |
| 2026-04-23 18:17 | 38.27296 | 32.71753 | 13699 ft | 250 kts | 204° |
| 2026-04-23 18:17 | 38.25665 | 32.70991 | 13267 ft | 248 kts | 207° |
| 2026-04-23 18:17 | 38.24103 | 32.70069 | 12841 ft | 247 kts | 208° |
| 2026-04-23 18:18 | 38.22530 | 32.69200 | 12428 ft | 246 kts | 206° |
| 2026-04-23 18:18 | 38.20961 | 32.68331 | 12013 ft | 245 kts | 207° |
| 2026-04-23 18:18 | 38.19931 | 32.67746 | 11745 ft | 245 kts | 207° |
| 2026-04-23 18:18 | 38.18377 | 32.66879 | 11334 ft | 244 kts | 206° |
| 2026-04-23 18:19 | 38.16828 | 32.66017 | 10943 ft | 242 kts | 206° |
| 2026-04-23 18:19 | 38.15290 | 32.65156 | 10604 ft | 239 kts | 206° |
| 2026-04-23 18:19 | 38.13757 | 32.64307 | 10300 ft | 236 kts | 205° |
| 2026-04-23 18:19 | 38.12265 | 32.63473 | 10030 ft | 233 kts | 206° |
| 2026-04-23 18:20 | 38.10781 | 32.62644 | 9737 ft | 233 kts | 206° |
| 2026-04-23 18:20 | 38.09297 | 32.61817 | 9406 ft | 233 kts | 206° |
| 2026-04-23 18:20 | 38.07832 | 32.60998 | 9065 ft | 234 kts | 205° |
| 2026-04-23 18:20 | 38.06337 | 32.60167 | 8722 ft | 235 kts | 205° |
| 2026-04-23 18:21 | 38.04836 | 32.59332 | 8388 ft | 236 kts | 205° |
| 2026-04-23 18:21 | 38.03340 | 32.58500 | 8177 ft | 233 kts | 205° |
| 2026-04-23 18:21 | 38.01878 | 32.57685 | 8087 ft | 226 kts | 205° |
| 2026-04-23 18:21 | 38.00425 | 32.56984 | 8041 ft | 221 kts | 199° |
| 2026-04-23 18:22 | 37.98935 | 32.56589 | 8029 ft | 219 kts | 185° |
| 2026-04-23 18:22 | 37.97420 | 32.56700 | 8015 ft | 218 kts | 175° |
| 2026-04-23 18:22 | 37.95934 | 32.57022 | 8013 ft | 216 kts | 172° |
| 2026-04-23 18:22 | 37.94452 | 32.57214 | 8010 ft | 213 kts | 179° |
| 2026-04-23 18:23 | 37.92937 | 32.57333 | 7619 ft | 224 kts | 179° |
| 2026-04-23 18:23 | 37.89712 | 32.57529 | 6633 ft | 237 kts | 179° |
| 2026-04-23 18:24 | 37.86383 | 32.57650 | 5771 ft | 237 kts | 179° |
| 2026-04-23 18:24 | 37.84760 | 32.57649 | 5631 ft | 228 kts | 185° |
| 2026-04-23 18:24 | 37.83348 | 32.56949 | 5569 ft | 218 kts | 224° |
| 2026-04-23 18:25 | 37.83103 | 32.53602 | 5514 ft | 196 kts | 309° |
| 2026-04-23 18:25 | 37.84250 | 32.52836 | 5504 ft | 187 kts | 351° |
| 2026-04-23 18:25 | 37.85525 | 32.52690 | 5517 ft | 182 kts | 357° |
| 2026-04-23 18:25 | 37.86776 | 32.52700 | 5502 ft | 178 kts | 1° |
| 2026-04-23 18:26 | 37.88017 | 32.52822 | 5404 ft | 181 kts | 5° |
| 2026-04-23 18:26 | 37.89276 | 32.53043 | 5118 ft | 184 kts | 8° |
| 2026-04-23 18:26 | 37.90277 | 32.53170 | 4886 ft | 187 kts | 15° |
| 2026-04-23 18:26 | 37.91501 | 32.53551 | 4648 ft | 164 kts | 14° |
| 2026-04-23 18:27 | 37.92531 | 32.53901 | 4311 ft | 146 kts | 17° |
| 2026-04-23 18:27 | 37.93466 | 32.54259 | 4118 ft | 139 kts | 18° |
| 2026-04-23 18:27 | 37.94385 | 32.54619 | 3952 ft | 138 kts | 16° |
| 2026-04-23 18:27 | 37.95313 | 32.54963 | 3709 ft | 141 kts | 18° |
| 2026-04-23 18:28 | 37.96229 | 32.55314 | 3507 ft | 134 kts | 14° |
| 2026-04-23 18:28 | 37.97030 | 32.55615 | 3388 ft | 106 kts | 15° |
| 2026-04-23 18:28 | 37.97508 | 32.55796 | 3387 ft | 57 kts | 16° |
| 2026-04-23 18:28 | 37.97856 | 32.55928 | 3389 ft | 49 kts | 16° |
| 2026-04-23 18:29 | 37.98172 | 32.56047 | 3388 ft | 46 kts | 16° |
| 2026-04-23 18:29 | 37.98467 | 32.56161 | 3385 ft | 43 kts | 14° |
| 2026-04-23 18:29 | 37.98682 | 32.56246 | 3388 ft | 12 kts | 41° |
| 2026-04-23 18:29 | 37.98697 | 32.56331 | 3386 ft | 0 kts | 109° |
| 2026-04-23 18:30 | 37.98692 | 32.56351 | 3387 ft | 7 kts | 105° |
| 2026-04-23 18:30 | 37.98669 | 32.56449 | 3387 ft | 16 kts | 107° |
| 2026-04-23 18:30 | 37.98630 | 32.56605 | 3388 ft | 22 kts | 106° |
| 2026-04-23 18:30 | 37.98578 | 32.56821 | 3388 ft | 28 kts | 106° |
| 2026-04-23 18:31 | 37.98530 | 32.57031 | 3388 ft | 26 kts | 105° |
| 2026-04-23 18:31 | 37.98482 | 32.57225 | 3388 ft | 7 kts | 108° |
| 2026-04-23 18:31 | 37.98456 | 32.57335 | 3388 ft | 18 kts | 105° |
| 2026-04-23 18:31 | 37.98452 | 32.57461 | 3388 ft | 8 kts | 17° |
| 2026-04-23 18:32 | 37.98529 | 32.57489 | 3388 ft | 15 kts | 15° |
| 2026-04-23 18:32 | 37.98645 | 32.57528 | 3388 ft | 17 kts | 16° |
| 2026-04-23 18:32 | 37.98693 | 32.57564 | 3388 ft | 10 kts | 91° |
| 2026-04-23 18:32 | 37.98683 | 32.57609 | 3388 ft | 4 kts | 105° |
| 2026-04-23 18:33 | 37.98683 | 32.57611 | 3388 ft | 0 kts | 105° |